sensor_id;sensor_type;location;lat;lon;timestamp;pressure;altitude;pressure_sealevel;temperature;humidity
59329;BME280;45100;46.926;7.452;2023-05-23T00:00:36;95132.53;;;17.35;83.18
59329;BME280;45100;46.926;7.452;2023-05-23T00:03:06;95129.76;;;17.32;83.66
59329;BME280;45100;46.926;7.452;2023-05-23T00:05:37;95134.54;;;17.31;83.72
59329;BME280;45100;46.926;7.452;2023-05-23T00:08:08;95134.22;;;17.28;84.07
59329;BME280;45100;46.926;7.452;2023-05-23T00:10:38;95134.23;;;17.27;84.16
59329;BME280;45100;46.926;7.452;2023-05-23T00:13:09;95131.13;;;17.23;84.04
59329;BME280;45100;46.926;7.452;2023-05-23T00:15:41;95132.06;;;17.21;84.34
59329;BME280;45100;46.926;7.452;2023-05-23T00:18:13;95127.97;;;17.19;84.21
59329;BME280;45100;46.926;7.452;2023-05-23T00:20:42;95128.48;;;17.15;84.42
59329;BME280;45100;46.926;7.452;2023-05-23T00:23:18;95130.81;;;17.11;84.61
59329;BME280;45100;46.926;7.452;2023-05-23T00:25:52;95131.64;;;17.06;84.82
59329;BME280;45100;46.926;7.452;2023-05-23T00:28:13;95136.09;;;16.99;85.28
59329;BME280;45100;46.926;7.452;2023-05-23T00:30:43;95141.27;;;16.91;85.65
59329;BME280;45100;46.926;7.452;2023-05-23T00:33:15;95148.48;;;16.82;86.01
59329;BME280;45100;46.926;7.452;2023-05-23T00:35:44;95151.25;;;16.77;86.49
59329;BME280;45100;46.926;7.452;2023-05-23T00:38:14;95144.77;;;16.73;86.90
59329;BME280;45100;46.926;7.452;2023-05-23T00:40:44;95146.77;;;16.72;86.92
59329;BME280;45100;46.926;7.452;2023-05-23T00:43:15;95141.77;;;16.72;86.78
59329;BME280;45100;46.926;7.452;2023-05-23T00:45:47;95139.05;;;16.72;86.43
59329;BME280;45100;46.926;7.452;2023-05-23T00:48:16;95142.36;;;16.72;85.92
59329;BME280;45100;46.926;7.452;2023-05-23T00:50:47;95146.17;;;16.72;85.90
59329;BME280;45100;46.926;7.452;2023-05-23T00:53:17;95146.97;;;16.73;85.90
59329;BME280;45100;46.926;7.452;2023-05-23T00:55:47;95144.40;;;16.77;85.61
59329;BME280;45100;46.926;7.452;2023-05-23T00:58:18;95137.98;;;16.77;84.96
59329;BME280;45100;46.926;7.452;2023-05-23T01:00:50;95133.89;;;16.75;84.87
59329;BME280;45100;46.926;7.452;2023-05-23T01:03:20;95137.91;;;16.71;84.67
59329;BME280;45100;46.926;7.452;2023-05-23T01:05:51;95145.88;;;16.68;84.96
59329;BME280;45100;46.926;7.452;2023-05-23T01:08:22;95150.41;;;16.66;85.21
59329;BME280;45100;46.926;7.452;2023-05-23T01:10:53;95150.47;;;16.67;84.88
59329;BME280;45100;46.926;7.452;2023-05-23T01:16:18;95148.77;;;16.64;85.17
59329;BME280;45100;46.926;7.452;2023-05-23T01:18:38;95147.34;;;16.64;85.08
59329;BME280;45100;46.926;7.452;2023-05-23T01:20:58;95148.88;;;16.65;85.29
59329;BME280;45100;46.926;7.452;2023-05-23T01:28:32;95149.42;;;16.70;85.08
59329;BME280;45100;46.926;7.452;2023-05-23T01:30:57;95146.88;;;16.71;85.26
59329;BME280;45100;46.926;7.452;2023-05-23T01:33:27;95143.93;;;16.71;85.24
59329;BME280;45100;46.926;7.452;2023-05-23T01:36:00;95145.06;;;16.65;85.49
59329;BME280;45100;46.926;7.452;2023-05-23T01:38:28;95143.39;;;16.58;85.97
59329;BME280;45100;46.926;7.452;2023-05-23T01:40:59;95148.73;;;16.50;86.35
59329;BME280;45100;46.926;7.452;2023-05-23T01:43:30;95152.16;;;16.45;86.89
59329;BME280;45100;46.926;7.452;2023-05-23T01:46:01;95154.11;;;16.42;87.18
59329;BME280;45100;46.926;7.452;2023-05-23T01:48:31;95152.53;;;16.39;87.40
59329;BME280;45100;46.926;7.452;2023-05-23T01:51:02;95152.94;;;16.37;87.52
59329;BME280;45100;46.926;7.452;2023-05-23T01:53:34;95147.84;;;16.35;87.68
59329;BME280;45100;46.926;7.452;2023-05-23T01:56:03;95149.41;;;16.30;87.71
59329;BME280;45100;46.926;7.452;2023-05-23T01:58:33;95146.02;;;16.26;88.15
59329;BME280;45100;46.926;7.452;2023-05-23T02:01:03;95149.11;;;16.22;88.49
59329;BME280;45100;46.926;7.452;2023-05-23T02:03:34;95151.15;;;16.19;88.93
59329;BME280;45100;46.926;7.452;2023-05-23T02:06:04;95155.39;;;16.19;89.02
59329;BME280;45100;46.926;7.452;2023-05-23T02:08:34;95156.98;;;16.21;88.97
59329;BME280;45100;46.926;7.452;2023-05-23T02:11:05;95157.80;;;16.22;88.49
59329;BME280;45100;46.926;7.452;2023-05-23T02:13:35;95158.56;;;16.21;88.65
59329;BME280;45100;46.926;7.452;2023-05-23T02:16:05;95157.68;;;16.18;88.57
59329;BME280;45100;46.926;7.452;2023-05-23T02:18:39;95155.11;;;16.14;88.77
59329;BME280;45100;46.926;7.452;2023-05-23T02:21:06;95159.65;;;16.08;88.85
59329;BME280;45100;46.926;7.452;2023-05-23T02:23:37;95162.06;;;16.00;89.27
59329;BME280;45100;46.926;7.452;2023-05-23T02:26:07;95159.84;;;15.89;90.16
59329;BME280;45100;46.926;7.452;2023-05-23T02:28:38;95157.41;;;15.83;90.83
59329;BME280;45100;46.926;7.452;2023-05-23T02:33:42;95160.13;;;15.81;90.93
59329;BME280;45100;46.926;7.452;2023-05-23T02:36:12;95159.47;;;15.80;90.87
59329;BME280;45100;46.926;7.452;2023-05-23T02:38:43;95156.16;;;15.79;90.80
59329;BME280;45100;46.926;7.452;2023-05-23T02:41:14;95160.12;;;15.76;90.93
59329;BME280;45100;46.926;7.452;2023-05-23T02:43:45;95163.02;;;15.74;91.14
59329;BME280;45100;46.926;7.452;2023-05-23T02:46:14;95159.53;;;15.71;91.13
59329;BME280;45100;46.926;7.452;2023-05-23T02:48:45;95161.38;;;15.69;91.30
59329;BME280;45100;46.926;7.452;2023-05-23T02:51:16;95163.53;;;15.68;91.44
59329;BME280;45100;46.926;7.452;2023-05-23T02:53:47;95161.70;;;15.66;91.70
59329;BME280;45100;46.926;7.452;2023-05-23T02:56:19;95163.44;;;15.65;91.75
59329;BME280;45100;46.926;7.452;2023-05-23T03:01:21;95159.33;;;15.67;91.61
59329;BME280;45100;46.926;7.452;2023-05-23T03:03:51;95160.41;;;15.66;91.62
59329;BME280;45100;46.926;7.452;2023-05-23T03:06:22;95153.33;;;15.65;91.48
59329;BME280;45100;46.926;7.452;2023-05-23T03:08:52;95152.14;;;15.63;91.59
59329;BME280;45100;46.926;7.452;2023-05-23T03:11:23;95157.59;;;15.61;91.75
59329;BME280;45100;46.926;7.452;2023-05-23T03:13:54;95157.09;;;15.58;91.73
59329;BME280;45100;46.926;7.452;2023-05-23T03:16:24;95156.54;;;15.54;91.96
59329;BME280;45100;46.926;7.452;2023-05-23T03:18:55;95156.50;;;15.48;92.54
59329;BME280;45100;46.926;7.452;2023-05-23T03:21:25;95161.91;;;15.45;93.02
59329;BME280;45100;46.926;7.452;2023-05-23T03:23:56;95159.36;;;15.45;93.18
59329;BME280;45100;46.926;7.452;2023-05-23T03:26:27;95164.30;;;15.47;93.08
59329;BME280;45100;46.926;7.452;2023-05-23T03:28:58;95167.23;;;15.47;93.08
59329;BME280;45100;46.926;7.452;2023-05-23T03:31:29;95171.16;;;15.49;92.86
59329;BME280;45100;46.926;7.452;2023-05-23T03:34:00;95169.80;;;15.48;92.92
59329;BME280;45100;46.926;7.452;2023-05-23T03:36:33;95167.17;;;15.47;93.07
59329;BME280;45100;46.926;7.452;2023-05-23T03:39:01;95170.39;;;15.48;93.06
59329;BME280;45100;46.926;7.452;2023-05-23T03:41:32;95172.56;;;15.50;92.97
59329;BME280;45100;46.926;7.452;2023-05-23T03:44:03;95177.41;;;15.51;92.81
59329;BME280;45100;46.926;7.452;2023-05-23T03:46:34;95182.20;;;15.52;92.56
59329;BME280;45100;46.926;7.452;2023-05-23T03:49:05;95183.50;;;15.51;92.73
59329;BME280;45100;46.926;7.452;2023-05-23T03:51:36;95182.53;;;15.52;92.78
59329;BME280;45100;46.926;7.452;2023-05-23T03:54:06;95184.71;;;15.54;92.68
59329;BME280;45100;46.926;7.452;2023-05-23T03:56:36;95184.17;;;15.56;92.55
59329;BME280;45100;46.926;7.452;2023-05-23T03:59:06;95188.38;;;15.58;92.11
59329;BME280;45100;46.926;7.452;2023-05-23T04:01:38;95187.28;;;15.59;91.75
59329;BME280;45100;46.926;7.452;2023-05-23T04:04:08;95187.28;;;15.57;91.58
59329;BME280;45100;46.926;7.452;2023-05-23T04:06:39;95188.67;;;15.56;91.78
59329;BME280;45100;46.926;7.452;2023-05-23T04:09:10;95188.83;;;15.54;91.81
59329;BME280;45100;46.926;7.452;2023-05-23T04:11:42;95186.81;;;15.53;91.94
59329;BME280;45100;46.926;7.452;2023-05-23T04:14:13;95184.80;;;15.52;91.85
59329;BME280;45100;46.926;7.452;2023-05-23T04:16:41;95185.51;;;15.51;91.97
59329;BME280;45100;46.926;7.452;2023-05-23T04:21:46;95191.10;;;15.52;92.31
59329;BME280;45100;46.926;7.452;2023-05-23T04:24:16;95191.80;;;15.53;92.35
59329;BME280;45100;46.926;7.452;2023-05-23T04:26:46;95190.20;;;15.55;91.86
59329;BME280;45100;46.926;7.452;2023-05-23T04:29:16;95191.23;;;15.55;91.81
59329;BME280;45100;46.926;7.452;2023-05-23T04:31:46;95193.83;;;15.55;91.89
59329;BME280;45100;46.926;7.452;2023-05-23T04:34:17;95196.17;;;15.56;91.79
59329;BME280;45100;46.926;7.452;2023-05-23T04:36:49;95199.77;;;15.59;92.10
59329;BME280;45100;46.926;7.452;2023-05-23T04:39:19;95201.42;;;15.63;91.87
59329;BME280;45100;46.926;7.452;2023-05-23T04:41:49;95202.92;;;15.66;91.41
59329;BME280;45100;46.926;7.452;2023-05-23T04:44:19;95203.02;;;15.69;91.06
59329;BME280;45100;46.926;7.452;2023-05-23T04:46:50;95201.62;;;15.72;90.92
59329;BME280;45100;46.926;7.452;2023-05-23T04:49:22;95200.33;;;15.73;90.68
59329;BME280;45100;46.926;7.452;2023-05-23T04:51:50;95204.83;;;15.74;90.55
59329;BME280;45100;46.926;7.452;2023-05-23T04:54:21;95203.49;;;15.76;90.84
59329;BME280;45100;46.926;7.452;2023-05-23T04:56:51;95207.52;;;15.79;90.58
59329;BME280;45100;46.926;7.452;2023-05-23T04:59:22;95211.73;;;15.86;90.73
59329;BME280;45100;46.926;7.452;2023-05-23T05:01:53;95215.33;;;15.96;90.25
59329;BME280;45100;46.926;7.452;2023-05-23T05:04:23;95213.53;;;16.05;89.93
59329;BME280;45100;46.926;7.452;2023-05-23T05:06:53;95214.27;;;16.13;89.67
59329;BME280;45100;46.926;7.452;2023-05-23T05:09:24;95207.97;;;16.24;89.49
59329;BME280;45100;46.926;7.452;2023-05-23T05:11:54;95207.38;;;16.44;88.13
59329;BME280;45100;46.926;7.452;2023-05-23T05:14:25;95209.30;;;16.71;86.59
59329;BME280;45100;46.926;7.452;2023-05-23T05:16:57;95208.91;;;17.00;84.59
59329;BME280;45100;46.926;7.452;2023-05-23T05:19:25;95206.94;;;17.16;83.39
59329;BME280;45100;46.926;7.452;2023-05-23T05:21:57;95213.85;;;17.20;83.38
59329;BME280;45100;46.926;7.452;2023-05-23T05:24:28;95210.41;;;17.22;83.16
59329;BME280;45100;46.926;7.452;2023-05-23T05:26:57;95207.48;;;17.20;82.79
59329;BME280;45100;46.926;7.452;2023-05-23T05:29:28;95211.91;;;17.15;83.02
59329;BME280;45100;46.926;7.452;2023-05-23T05:31:58;95210.33;;;17.12;83.23
59329;BME280;45100;46.926;7.452;2023-05-23T05:34:29;95214.61;;;17.07;83.73
59329;BME280;45100;46.926;7.452;2023-05-23T05:36:59;95217.00;;;17.04;83.97
59329;BME280;45100;46.926;7.452;2023-05-23T05:39:29;95221.73;;;17.02;84.14
59329;BME280;45100;46.926;7.452;2023-05-23T05:42:05;95222.28;;;17.00;84.49
59329;BME280;45100;46.926;7.452;2023-05-23T05:44:31;95222.12;;;17.00;84.57
59329;BME280;45100;46.926;7.452;2023-05-23T05:47:01;95228.48;;;17.03;84.84
59329;BME280;45100;46.926;7.452;2023-05-23T05:49:32;95227.50;;;17.05;84.69
59329;BME280;45100;46.926;7.452;2023-05-23T05:52:03;95225.45;;;17.06;84.83
59329;BME280;45100;46.926;7.452;2023-05-23T05:54:33;95225.92;;;17.08;84.65
59329;BME280;45100;46.926;7.452;2023-05-23T05:57:04;95222.38;;;17.10;84.69
59329;BME280;45100;46.926;7.452;2023-05-23T05:59:34;95222.67;;;17.11;84.19
59329;BME280;45100;46.926;7.452;2023-05-23T06:02:07;95229.42;;;17.11;84.02
59329;BME280;45100;46.926;7.452;2023-05-23T06:04:35;95232.62;;;17.10;84.07
59329;BME280;45100;46.926;7.452;2023-05-23T06:07:06;95232.85;;;17.09;83.81
59329;BME280;45100;46.926;7.452;2023-05-23T06:09:36;95236.11;;;17.09;83.91
59329;BME280;45100;46.926;7.452;2023-05-23T06:12:08;95237.14;;;17.12;83.96
59329;BME280;45100;46.926;7.452;2023-05-23T06:14:37;95231.55;;;17.15;83.86
59329;BME280;45100;46.926;7.452;2023-05-23T06:17:09;95228.17;;;17.18;82.83
59329;BME280;45100;46.926;7.452;2023-05-23T06:19:39;95227.78;;;17.23;82.63
59329;BME280;45100;46.926;7.452;2023-05-23T06:22:09;95226.37;;;17.28;82.95
59329;BME280;45100;46.926;7.452;2023-05-23T06:24:40;95228.87;;;17.40;83.13
59329;BME280;45100;46.926;7.452;2023-05-23T06:27:11;95230.47;;;17.55;82.97
59329;BME280;45100;46.926;7.452;2023-05-23T06:29:41;95227.59;;;17.71;82.43
59329;BME280;45100;46.926;7.452;2023-05-23T06:32:12;95227.50;;;17.83;81.27
59329;BME280;45100;46.926;7.452;2023-05-23T06:34:42;95229.45;;;17.93;80.83
59329;BME280;45100;46.926;7.452;2023-05-23T06:37:12;95231.22;;;18.01;79.12
59329;BME280;45100;46.926;7.452;2023-05-23T06:39:43;95239.39;;;18.05;78.96
59329;BME280;45100;46.926;7.452;2023-05-23T06:42:14;95238.39;;;18.11;79.17
59329;BME280;45100;46.926;7.452;2023-05-23T06:44:45;95239.78;;;18.19;78.83
59329;BME280;45100;46.926;7.452;2023-05-23T06:47:16;95241.45;;;18.27;78.58
59329;BME280;45100;46.926;7.452;2023-05-23T06:49:47;95243.11;;;18.35;78.05
59329;BME280;45100;46.926;7.452;2023-05-23T06:52:17;95244.91;;;18.36;77.21
59329;BME280;45100;46.926;7.452;2023-05-23T06:54:48;95255.72;;;18.32;77.08
59329;BME280;45100;46.926;7.452;2023-05-23T06:57:18;95260.14;;;18.25;76.85
59329;BME280;45100;46.926;7.452;2023-05-23T06:59:48;95259.37;;;18.14;77.09
59329;BME280;45100;46.926;7.452;2023-05-23T07:02:19;95262.34;;;18.02;77.16
59329;BME280;45100;46.926;7.452;2023-05-23T07:07:23;95271.97;;;17.82;78.07
59329;BME280;45100;46.926;7.452;2023-05-23T07:09:53;95274.23;;;17.74;78.59
59329;BME280;45100;46.926;7.452;2023-05-23T07:12:24;95278.80;;;17.72;79.40
59329;BME280;45100;46.926;7.452;2023-05-23T07:14:55;95278.31;;;17.71;79.60
59329;BME280;45100;46.926;7.452;2023-05-23T07:17:26;95277.81;;;17.70;79.95
59329;BME280;45100;46.926;7.452;2023-05-23T07:19:56;95277.38;;;17.68;80.13
59329;BME280;45100;46.926;7.452;2023-05-23T07:22:27;95279.19;;;17.59;80.70
59329;BME280;45100;46.926;7.452;2023-05-23T07:24:58;95281.16;;;17.51;81.48
59329;BME280;45100;46.926;7.452;2023-05-23T07:27:28;95290.56;;;17.46;81.36
59329;BME280;45100;46.926;7.452;2023-05-23T07:30:00;95293.34;;;17.38;81.01
59329;BME280;45100;46.926;7.452;2023-05-23T07:32:30;95292.62;;;17.30;82.10
59329;BME280;45100;46.926;7.452;2023-05-23T07:35:00;95294.19;;;17.23;84.30
59329;BME280;45100;46.926;7.452;2023-05-23T07:37:31;95293.25;;;17.19;85.64
59329;BME280;45100;46.926;7.452;2023-05-23T07:40:03;95295.75;;;17.19;87.63
59329;BME280;45100;46.926;7.452;2023-05-23T07:42:33;95296.52;;;17.25;89.47
59329;BME280;45100;46.926;7.452;2023-05-23T07:45:04;95297.29;;;17.28;89.57
59329;BME280;45100;46.926;7.452;2023-05-23T07:47:34;95293.43;;;17.31;89.43
59329;BME280;45100;46.926;7.452;2023-05-23T07:50:06;95293.92;;;17.32;89.91
59329;BME280;45100;46.926;7.452;2023-05-23T07:52:35;95292.89;;;17.32;90.22
59329;BME280;45100;46.926;7.452;2023-05-23T07:55:07;95291.03;;;17.31;90.33
59329;BME280;45100;46.926;7.452;2023-05-23T07:57:36;95292.57;;;17.32;91.05
59329;BME280;45100;46.926;7.452;2023-05-23T08:00:10;95295.13;;;17.38;91.99
59329;BME280;45100;46.926;7.452;2023-05-23T08:02:38;95296.17;;;17.44;92.18
59329;BME280;45100;46.926;7.452;2023-05-23T08:05:09;95289.31;;;17.50;92.30
59329;BME280;45100;46.926;7.452;2023-05-23T08:07:39;95287.95;;;17.55;92.53
59329;BME280;45100;46.926;7.452;2023-05-23T08:10:10;95280.81;;;17.62;92.56
59329;BME280;45100;46.926;7.452;2023-05-23T08:12:40;95282.30;;;17.70;92.29
59329;BME280;45100;46.926;7.452;2023-05-23T08:15:11;95279.99;;;17.77;91.56
59329;BME280;45100;46.926;7.452;2023-05-23T08:17:40;95281.59;;;17.82;90.87
59329;BME280;45100;46.926;7.452;2023-05-23T08:20:12;95277.95;;;17.83;91.12
59329;BME280;45100;46.926;7.452;2023-05-23T08:22:41;95277.25;;;17.88;91.50
59329;BME280;45100;46.926;7.452;2023-05-23T08:25:12;95279.24;;;17.95;91.28
59329;BME280;45100;46.926;7.452;2023-05-23T08:27:43;95281.61;;;18.04;91.29
59329;BME280;45100;46.926;7.452;2023-05-23T08:30:14;95285.05;;;18.10;90.90
59329;BME280;45100;46.926;7.452;2023-05-23T08:32:45;95283.23;;;18.18;91.00
59329;BME280;45100;46.926;7.452;2023-05-23T08:35:16;95282.08;;;18.27;90.72
59329;BME280;45100;46.926;7.452;2023-05-23T08:37:47;95285.48;;;18.36;90.14
59329;BME280;45100;46.926;7.452;2023-05-23T08:42:50;95284.92;;;18.52;88.86
59329;BME280;45100;46.926;7.452;2023-05-23T08:45:23;95284.83;;;18.61;88.77
59329;BME280;45100;46.926;7.452;2023-05-23T08:47:51;95281.27;;;18.74;88.48
59329;BME280;45100;46.926;7.452;2023-05-23T08:52:57;95273.29;;;19.00;87.50
59329;BME280;45100;46.926;7.452;2023-05-23T08:55:29;95268.58;;;19.11;87.55
59329;BME280;45100;46.926;7.452;2023-05-23T08:57:57;95269.77;;;19.18;86.58
59329;BME280;45100;46.926;7.452;2023-05-23T09:00:26;95265.00;;;19.23;87.41
59329;BME280;45100;46.926;7.452;2023-05-23T09:02:56;95270.34;;;19.33;87.64
59329;BME280;45100;46.926;7.452;2023-05-23T09:05:27;95270.75;;;19.43;86.48
59329;BME280;45100;46.926;7.452;2023-05-23T09:07:58;95272.10;;;19.54;86.65
59329;BME280;45100;46.926;7.452;2023-05-23T09:10:29;95267.06;;;19.66;87.21
59329;BME280;45100;46.926;7.452;2023-05-23T09:12:59;95263.44;;;19.80;87.07
59329;BME280;45100;46.926;7.452;2023-05-23T09:18:05;95256.31;;;20.10;80.79
59329;BME280;45100;46.926;7.452;2023-05-23T09:20:39;95254.32;;;20.22;80.92
59329;BME280;45100;46.926;7.452;2023-05-23T09:23:06;95248.77;;;20.35;80.71
59329;BME280;45100;46.926;7.452;2023-05-23T09:25:38;95248.27;;;20.42;79.43
59329;BME280;45100;46.926;7.452;2023-05-23T09:28:08;95248.17;;;20.44;76.73
59329;BME280;45100;46.926;7.452;2023-05-23T09:30:37;95253.39;;;20.46;76.53
59329;BME280;45100;46.926;7.452;2023-05-23T09:33:07;95252.59;;;20.51;75.45
59329;BME280;45100;46.926;7.452;2023-05-23T09:35:42;95254.94;;;20.54;74.18
59329;BME280;45100;46.926;7.452;2023-05-23T09:38:09;95258.30;;;20.55;75.25
59329;BME280;45100;46.926;7.452;2023-05-23T09:40:44;95259.44;;;20.57;74.25
59329;BME280;45100;46.926;7.452;2023-05-23T09:43:10;95261.45;;;20.61;72.00
59329;BME280;45100;46.926;7.452;2023-05-23T09:45:41;95256.05;;;20.65;73.38
59329;BME280;45100;46.926;7.452;2023-05-23T09:48:11;95262.03;;;20.68;71.69
59329;BME280;45100;46.926;7.452;2023-05-23T09:50:44;95267.67;;;20.67;72.42
59329;BME280;45100;46.926;7.452;2023-05-23T09:55:47;95262.95;;;20.69;72.82
59329;BME280;45100;46.926;7.452;2023-05-23T09:58:18;95257.97;;;20.77;73.47
59329;BME280;45100;46.926;7.452;2023-05-23T10:00:49;95262.69;;;20.89;75.77
59329;BME280;45100;46.926;7.452;2023-05-23T10:03:21;95257.30;;;20.99;75.59
59329;BME280;45100;46.926;7.452;2023-05-23T10:05:48;95258.43;;;21.15;75.44
59329;BME280;45100;46.926;7.452;2023-05-23T10:08:19;95255.86;;;21.34;76.50
59329;BME280;45100;46.926;7.452;2023-05-23T10:13:19;95260.30;;;21.67;73.25
59329;BME280;45100;46.926;7.452;2023-05-23T10:15:50;95250.48;;;21.75;72.85
59329;BME280;45100;46.926;7.452;2023-05-23T10:18:23;95247.91;;;21.77;70.94
59329;BME280;45100;46.926;7.452;2023-05-23T10:20:53;95241.95;;;21.82;70.12
59329;BME280;45100;46.926;7.452;2023-05-23T10:23:21;95248.02;;;21.84;69.30
59329;BME280;45100;46.926;7.452;2023-05-23T10:25:51;95244.24;;;21.77;69.45
59329;BME280;45100;46.926;7.452;2023-05-23T10:28:22;95238.64;;;21.65;69.28
59329;BME280;45100;46.926;7.452;2023-05-23T10:30:54;95241.23;;;21.54;71.56
59329;BME280;45100;46.926;7.452;2023-05-23T10:33:25;95242.55;;;21.47;71.38
59329;BME280;45100;46.926;7.452;2023-05-23T10:36:03;95242.59;;;21.35;70.80
59329;BME280;45100;46.926;7.452;2023-05-23T10:38:35;95242.88;;;21.19;70.38
59329;BME280;45100;46.926;7.452;2023-05-23T10:41:09;95237.83;;;21.03;72.46
59329;BME280;45100;46.926;7.452;2023-05-23T10:45:57;95232.16;;;20.96;75.18
59329;BME280;45100;46.926;7.452;2023-05-23T10:48:33;95234.64;;;21.10;75.62
59329;BME280;45100;46.926;7.452;2023-05-23T10:51:01;95236.13;;;21.30;73.38
59329;BME280;45100;46.926;7.452;2023-05-23T10:53:29;95235.66;;;21.45;71.80
59329;BME280;45100;46.926;7.452;2023-05-23T10:55:59;95232.72;;;21.61;70.05
59329;BME280;45100;46.926;7.452;2023-05-23T10:58:30;95235.53;;;21.73;69.97
59329;BME280;45100;46.926;7.452;2023-05-23T11:03:48;95240.92;;;21.94;71.45
59329;BME280;45100;46.926;7.452;2023-05-23T11:06:04;95236.30;;;22.04;68.46
59329;BME280;45100;46.926;7.452;2023-05-23T11:08:40;95233.95;;;22.07;68.01
59329;BME280;45100;46.926;7.452;2023-05-23T11:11:05;95228.09;;;22.12;68.30
59329;BME280;45100;46.926;7.452;2023-05-23T11:13:56;95223.91;;;22.15;67.66
59329;BME280;45100;46.926;7.452;2023-05-23T11:16:24;95225.61;;;22.07;66.68
59329;BME280;45100;46.926;7.452;2023-05-23T11:18:37;95223.36;;;21.95;67.68
59329;BME280;45100;46.926;7.452;2023-05-23T11:21:07;95224.58;;;21.89;68.63
59329;BME280;45100;46.926;7.452;2023-05-23T11:23:41;95227.75;;;21.89;69.77
59329;BME280;45100;46.926;7.452;2023-05-23T11:26:29;95226.09;;;21.93;68.81
59329;BME280;45100;46.926;7.452;2023-05-23T11:28:54;95220.75;;;22.00;68.34
59329;BME280;45100;46.926;7.452;2023-05-23T11:31:09;95217.11;;;22.04;69.55
59329;BME280;45100;46.926;7.452;2023-05-23T11:33:40;95212.52;;;22.12;70.77
59329;BME280;45100;46.926;7.452;2023-05-23T11:36:10;95209.61;;;22.22;70.26
59329;BME280;45100;46.926;7.452;2023-05-23T11:38:41;95209.16;;;22.23;68.76
59329;BME280;45100;46.926;7.452;2023-05-23T11:41:12;95211.30;;;22.16;67.93
59329;BME280;45100;46.926;7.452;2023-05-23T11:46:17;95211.45;;;21.96;67.21
59329;BME280;45100;46.926;7.452;2023-05-23T11:48:47;95214.20;;;21.86;68.40
59329;BME280;45100;46.926;7.452;2023-05-23T11:51:17;95214.30;;;21.72;70.44
59329;BME280;45100;46.926;7.452;2023-05-23T11:53:48;95213.34;;;21.51;69.94
59329;BME280;45100;46.926;7.452;2023-05-23T11:56:18;95220.92;;;21.27;69.93
59329;BME280;45100;46.926;7.452;2023-05-23T11:58:49;95223.86;;;21.02;71.00
59329;BME280;45100;46.926;7.452;2023-05-23T12:01:20;95220.30;;;20.75;72.69
59329;BME280;45100;46.926;7.452;2023-05-23T12:03:53;95225.37;;;20.60;74.70
59329;BME280;45100;46.926;7.452;2023-05-23T12:06:22;95218.50;;;20.51;74.49
59329;BME280;45100;46.926;7.452;2023-05-23T12:08:52;95215.57;;;20.45;75.04
59329;BME280;45100;46.926;7.452;2023-05-23T12:11:24;95211.28;;;20.42;77.15
59329;BME280;45100;46.926;7.452;2023-05-23T12:14:06;95213.56;;;20.39;78.39
59329;BME280;45100;46.926;7.452;2023-05-23T12:16:29;95212.18;;;20.35;78.07
59329;BME280;45100;46.926;7.452;2023-05-23T12:21:42;95209.35;;;20.48;80.27
59329;BME280;45100;46.926;7.452;2023-05-23T12:24:16;95211.12;;;20.65;80.69
59329;BME280;45100;46.926;7.452;2023-05-23T12:26:32;95212.44;;;20.81;80.80
59329;BME280;45100;46.926;7.452;2023-05-23T12:29:03;95207.14;;;20.95;78.15
59329;BME280;45100;46.926;7.452;2023-05-23T12:31:34;95202.39;;;21.13;80.88
59329;BME280;45100;46.926;7.452;2023-05-23T12:34:04;95207.75;;;21.31;79.53
59329;BME280;45100;46.926;7.452;2023-05-23T12:36:38;95204.30;;;21.46;78.23
59329;BME280;45100;46.926;7.452;2023-05-23T12:39:06;95205.97;;;21.61;75.51
59329;BME280;45100;46.926;7.452;2023-05-23T12:41:37;95203.88;;;21.66;74.13
59329;BME280;45100;46.926;7.452;2023-05-23T12:44:07;95199.84;;;21.67;73.85
59329;BME280;45100;46.926;7.452;2023-05-23T12:46:38;95203.08;;;21.70;74.70
59329;BME280;45100;46.926;7.452;2023-05-23T12:49:08;95198.59;;;21.79;73.80
59329;BME280;45100;46.926;7.452;2023-05-23T12:51:39;95201.80;;;21.96;72.99
59329;BME280;45100;46.926;7.452;2023-05-23T12:54:09;95199.06;;;22.15;69.97
59329;BME280;45100;46.926;7.452;2023-05-23T12:59:13;95192.98;;;22.48;69.61
59329;BME280;45100;46.926;7.452;2023-05-23T13:01:44;95189.34;;;22.51;68.63
59329;BME280;45100;46.926;7.452;2023-05-23T13:04:15;95185.79;;;22.57;71.70
59329;BME280;45100;46.926;7.452;2023-05-23T13:06:46;95191.81;;;22.63;68.10
59329;BME280;45100;46.926;7.452;2023-05-23T13:09:16;95188.22;;;22.65;69.72
59329;BME280;45100;46.926;7.452;2023-05-23T13:11:46;95184.52;;;22.75;68.98
59329;BME280;45100;46.926;7.452;2023-05-23T13:14:17;95177.76;;;22.97;69.03
59329;BME280;45100;46.926;7.452;2023-05-23T13:16:47;95181.56;;;23.15;67.41
59329;BME280;45100;46.926;7.452;2023-05-23T13:19:19;95177.66;;;23.24;60.33
59329;BME280;45100;46.926;7.452;2023-05-23T13:21:48;95172.95;;;23.25;61.58
59329;BME280;45100;46.926;7.452;2023-05-23T13:24:19;95166.22;;;23.26;64.20
59329;BME280;45100;46.926;7.452;2023-05-23T13:26:50;95167.39;;;23.32;63.10
59329;BME280;45100;46.926;7.452;2023-05-23T13:29:21;95165.31;;;23.40;59.35
59329;BME280;45100;46.926;7.452;2023-05-23T13:31:53;95155.62;;;23.45;57.46
59329;BME280;45100;46.926;7.452;2023-05-23T13:34:22;95155.50;;;23.51;59.65
59329;BME280;45100;46.926;7.452;2023-05-23T13:36:53;95153.19;;;23.60;59.46
59329;BME280;45100;46.926;7.452;2023-05-23T13:39:23;95152.75;;;23.59;60.25
59329;BME280;45100;46.926;7.452;2023-05-23T13:41:54;95152.47;;;23.54;60.28
59329;BME280;45100;46.926;7.452;2023-05-23T13:44:25;95151.83;;;23.52;61.87
59329;BME280;45100;46.926;7.452;2023-05-23T13:46:57;95148.34;;;23.55;59.48
59329;BME280;45100;46.926;7.452;2023-05-23T13:49:25;95137.50;;;23.55;59.21
59329;BME280;45100;46.926;7.452;2023-05-23T13:51:56;95138.27;;;23.56;61.31
59329;BME280;45100;46.926;7.452;2023-05-23T13:54:27;95129.39;;;23.51;59.65
59329;BME280;45100;46.926;7.452;2023-05-23T13:56:58;95126.09;;;23.39;59.16
59329;BME280;45100;46.926;7.452;2023-05-23T13:59:28;95122.67;;;23.29;60.57